Welcome to our Virtual Airline
Sign-in:

Flight MFC33961

  • Submitted By: Karl Klotz
  • Departure Airport: Koyukuk (KYU)
  • Arrival Airport: Kaltag (KAL)
  • Aircraft: RYAN B5 (NRB5MM)
  • Flight Time: 00.27.11
  • Date Submitted: 19/05/07
  • Route: STOP-OVER AT NULATO (NUL)
  • Status: Accepted
Flight Details
Gross Revenue:
(3 load / $ 44.00 per unit
$ 132.00
Fuel Cost:
(13.6078 fuel used @ 5.1 / unit)
$ 69.40

Additional Log Information:

View Log

FS[12:30] ----- Flight Opened -----
FS[12:30] Cigar Box - 1.1.4.0
FS[12:30] FS: Prepar3D V4
FS[12:30] FSUIPC: v5,15
FS[12:30] Flight Number: MFC33961
FS[12:30] FS Aircraft: C185F SKYWAGON TUNDRA
FS[12:30] FS Model: C185
FS[12:30] FS Type: Cessna
FS[12:30] Departure: KYU
FS[12:30] Arrival: KAL
FS[12:30] Flight Level: 2500
FS[12:30] Flight Type: H
FS[12:30] Passengers: 3
FS[12:30] FOB: 122 lbs
FS[12:30] Gate: n/a
FS[12:30] NOTE: Parking Brake Ignored
FS[12:30] Crash Detection: Disabled
FS[12:30] Engines: 1 Piston
FS[12:30] NOTE: Boarding has started
FS[12:30] Autopilot: Engaged
FS[12:30] AGL: 3 ft
FS[12:30] AMSL: 137 ft
FS[12:30] Engine 1: Started
FS[12:30] Light Data: Navigation ON
FS[12:30] Light Data: Beacon ON
FS[12:30] Light Data: Strobe lights ON
FS[12:30] Main Door Closed
FS[12:30] COM1: 121.05
FS[12:30] COM2: 127.80
FS[12:30] Transponder: 1200
FS[12:30] NAV1: 115.90
FS[12:30] NAV2: 110.60
FS[12:30] ADF1: 214.0
FS[12:30] ADF2: 240.0
FS[12:30] Navigation Mode: NAV
FS[12:30] NOTE: Taxi started
FS[12:30] NOTE: ----- TAKE OFF -----
FS[12:30] GS: 40 knots
FS[12:30] TAS: 41 knots
FS[12:30] IAS: 41 knots
FS[12:30] VS: 2 fpm
FS[12:30] FOB: 122 lbs
FS[12:30] Heading: 42°
FS[12:30] Pitch: 8°
FS[12:30] Bank: 0°
FS[12:30] Aircraft Weight: 2102,64 lbs
FS[12:30] Nearest Airport: KYU
FS[12:30] Distance: 0,11 miles
FS[12:30] Runway: 6 - KYU
FS[12:30] Ground Surface: Gravel
FS[12:30] Ground Condition: Normal
FS[12:30] NOTE: Weather Report
FS[12:30] Wind Heading: 346°
FS[12:30] Wind Speed: 0 knots
FS[12:30] OAT: 14° C
FS[12:30] TAT: 14° C
FS[12:30] Precipitation: None
FS[12:30] Dew Point: 4° C
FS[12:30] Visibility: 62 miles
FS[12:30] METAR: No METAR available for KYU.
FS[12:30] NOTE: Climb started
FS[12:30] View Mode: Virtual Cockpit
FS[12:31] Autopilot: Disengaged
FS[12:31] AGL: 669 ft
FS[12:31] AMSL: 793 ft
FS[12:31] Autopilot: Engaged
FS[12:31] AGL: 695 ft
FS[12:31] AMSL: 816 ft
FS[12:36] Flaps: Position 1
FS[12:36] GS: 79 knots
FS[12:36] TAS: 81 knots
FS[12:36] IAS: 80 knots
FS[12:36] VS: -93 fpm
FS[12:36] Flaps: Position 2
FS[12:36] GS: 79 knots
FS[12:36] TAS: 80 knots
FS[12:36] IAS: 79 knots
FS[12:36] VS: -9 fpm
FS[12:37] Flaps: Position 3
FS[12:37] GS: 62 knots
FS[12:37] TAS: 64 knots
FS[12:37] IAS: 63 knots
FS[12:37] VS: -399 fpm
FS[12:37] Flaps: Position 4
FS[12:37] GS: 60 knots
FS[12:37] TAS: 61 knots
FS[12:37] IAS: 60 knots
FS[12:37] VS: -322 fpm
FS[12:38] NOTE: ----- LANDED -----
FS[12:38] Landing Rate: -32,30 fpm
FS[12:38] GS: 52 knots
FS[12:38] TAS: 53 knots
FS[12:38] IAS: 52 knots
FS[12:38] VS: -32 fpm
FS[12:38] FOB: 112 lbs
FS[12:38] Heading: 207°
FS[12:38] Pitch: 0°
FS[12:38] Bank: 0°
FS[12:38] Aircraft Weight: 2092,32 lbs
FS[12:38] Nearest Airport: NUL
FS[12:38] Distance: 0,10 miles
FS[12:38] Runway: 20 - NUL
FS[12:38] Ground Surface: Gravel
FS[12:38] Ground Condition: Normal
FS[12:38] NOTE: Weather Report
FS[12:38] Wind Heading: 346°
FS[12:38] Wind Speed: 0 knots
FS[12:38] OAT: 14° C
FS[12:38] TAT: 14° C
FS[12:38] Precipitation: None
FS[12:38] Dew Point: 4° C
FS[12:38] Visibility: 62 miles
FS[12:38] METAR: KALB 071751Z 00000KT 10SM SCT070 BKN110 18/11 A3011 RMK AO2 SLP194 T01830106 10189 20133 50001KALI 071753Z AUTO 12014KT 10SM SCT020 SCT029 BKN034 30/24 A2988 RMK AO2 SLP117 T03000239 10300 20228 58008KALK 071756Z AUTO 27016G26KT 10SM CLR 18/M01 A3003 RMK AO2 PK WND 27030/1731 SLP099 T01831011 10194 20094 51002KALM 071815Z AUTO 23009G21KT 10SM CLR 24/M07 A2996 RMK AO2KALN 071748Z 09006KT 10SM FEW020 SCT130 BKN200 24/16 A3009KALO 071754Z 10011G19KT 10SM BKN039 OVC095 16/09 A3020 RMK AO2 SLP229 T01610089 10167 20106 58002KALS 071755Z AUTO 00000KT CLR 16/M09 A2997 RMK AO2 T01611089 PWINO PNO $KALW 071753Z 25009KT 10SM CLR 21/04 A2997 RMK AO2 SLP146 T02060044 10211 20111 52008KALX 071815Z AUTO 06004KT 10SM CLR 28/14 A3013 RMK AO2 T02840137
FS[12:38] View Mode: Virtual Cockpit
FS[12:38] NOTE: Taxi started
FS[12:39] Flaps: Position 3
FS[12:39] Flaps: Position 0
FS[12:39] View Mode: Virtual Cockpit
FS[12:40] Autopilot: Disengaged
FS[12:40] AGL: 775 ft
FS[12:40] AMSL: 958 ft
FS[12:40] Autopilot: Engaged
FS[12:40] AGL: 807 ft
FS[12:40] AMSL: 990 ft
FS[12:53] Autopilot: Disengaged
FS[12:53] AGL: 876 ft
FS[12:53] AMSL: 974 ft
FS[12:54] Flaps: Position 1
FS[12:54] GS: 97 knots
FS[12:54] TAS: 98 knots
FS[12:54] IAS: 97 knots
FS[12:54] VS: -398 fpm
FS[12:54] Flaps: Position 2
FS[12:54] GS: 77 knots
FS[12:54] TAS: 79 knots
FS[12:54] IAS: 78 knots
FS[12:54] VS: -346 fpm
FS[12:54] Flaps: Position 3
FS[12:54] GS: 69 knots
FS[12:54] TAS: 71 knots
FS[12:54] IAS: 70 knots
FS[12:54] VS: -362 fpm
FS[12:54] Flaps: Position 4
FS[12:54] GS: 60 knots
FS[12:54] TAS: 60 knots
FS[12:54] IAS: 60 knots
FS[12:54] VS: -580 fpm
FS[12:56] NOTE: ----- LANDED -----
FS[12:56] Landing Rate: -28,45 fpm
FS[12:56] GS: 50 knots
FS[12:56] TAS: 52 knots
FS[12:56] IAS: 51 knots
FS[12:56] VS: -24 fpm
FS[12:56] FOB: 92 lbs
FS[12:56] Heading: 217°
FS[12:56] Pitch: 0°
FS[12:56] Bank: 0°
FS[12:56] Aircraft Weight: 2073,41 lbs
FS[12:56] Nearest Airport: KAL
FS[12:56] Distance: 0,25 miles
FS[12:56] Runway: 21 - KAL
FS[12:56] Ground Surface: Gravel
FS[12:56] Ground Condition: Normal
FS[12:56] NOTE: Weather Report
FS[12:56] Wind Heading: 346°
FS[12:56] Wind Speed: 0 knots
FS[12:56] OAT: 14° C
FS[12:56] TAT: 15° C
FS[12:56] Precipitation: None
FS[12:56] Dew Point: 4° C
FS[12:56] Visibility: 62 miles
FS[12:56] METAR: KALB 071751Z 00000KT 10SM SCT070 BKN110 18/11 A3011 RMK AO2 SLP194 T01830106 10189 20133 50001KALI 071753Z AUTO 12014KT 10SM SCT020 SCT029 BKN034 30/24 A2988 RMK AO2 SLP117 T03000239 10300 20228 58008KALK 071756Z AUTO 27016G26KT 10SM CLR 18/M01 A3003 RMK AO2 PK WND 27030/1731 SLP099 T01831011 10194 20094 51002KALM 071815Z AUTO 23009G21KT 10SM CLR 24/M07 A2996 RMK AO2KALN 071748Z 09006KT 10SM FEW020 SCT130 BKN200 24/16 A3009KALO 071754Z 10011G19KT 10SM BKN039 OVC095 16/09 A3020 RMK AO2 SLP229 T01610089 10167 20106 58002KALS 071755Z AUTO 00000KT CLR 16/M09 A2997 RMK AO2 T01611089 PWINO PNO $KALW 071753Z 25009KT 10SM CLR 21/04 A2997 RMK AO2 SLP146 T02060044 10211 20111 52008KALX 071815Z AUTO 06004KT 10SM CLR 28/14 A3013 RMK AO2 T02840137
FS[12:56] View Mode: Virtual Cockpit
FS[12:56] Flaps: Position 3
FS[12:56] Flaps: Position 2
FS[12:57] Flaps: Position 1
FS[12:57] Flaps: Position 0
FS[12:57] Gate: n/a
FS[12:57] NOTE: Flight Completed
FS[12:57] FS Aircraft: C185F SKYWAGON TUNDRA
FS[12:57] FS Model: C185
FS[12:57] FS Type: Cessna
FS[12:57] FOB: 92 lbs
FS[12:57] Fuel Used: 30 lbs
FS[12:57] Flight Time: 00:27:11
FS[12:57] Flight Time (Dawn): 00:00:00
FS[12:57] Flight Time (Day): 00:27:11
FS[12:57] Flight Time (Dusk): 00:00:00
FS[12:57] Flight Time (Night): 00:00:00
FS[12:57] Total Landings: 2
FS[12:57] MaxSim Rate: 0x
FS[12:57] Cigar Box - 1.1.4.0
FS[12:57] ----- Flight Closed -----

Route Map